sensor_id;sensor_type;location;lat;lon;timestamp;P1;durP1;ratioP1;P2;durP2;ratioP2
4857;SDS011;58975;51.978;8.472;2023-03-01T00:01:22;9.90;;;5.35;;
4857;SDS011;58975;51.978;8.472;2023-03-01T00:06:20;14.07;;;5.82;;
4857;SDS011;58975;51.978;8.472;2023-03-01T00:16:19;7.43;;;5.20;;
4857;SDS011;58975;51.978;8.472;2023-03-01T00:21:19;8.35;;;5.35;;
4857;SDS011;58975;51.978;8.472;2023-03-01T00:26:18;10.68;;;5.55;;
4857;SDS011;58975;51.978;8.472;2023-03-01T00:31:16;15.68;;;6.95;;
4857;SDS011;58975;51.978;8.472;2023-03-01T00:36:17;19.08;;;7.63;;
4857;SDS011;58975;51.978;8.472;2023-03-01T00:41:14;15.05;;;6.72;;
4857;SDS011;58975;51.978;8.472;2023-03-01T00:46:14;17.55;;;7.60;;
4857;SDS011;58975;51.978;8.472;2023-03-01T00:51:17;14.68;;;6.57;;
4857;SDS011;58975;51.978;8.472;2023-03-01T00:56:18;12.60;;;5.80;;
4857;SDS011;58975;51.978;8.472;2023-03-01T01:01:19;11.93;;;5.57;;
4857;SDS011;58975;51.978;8.472;2023-03-01T01:06:24;15.05;;;6.15;;
4857;SDS011;58975;51.978;8.472;2023-03-01T01:11:27;9.48;;;4.75;;
4857;SDS011;58975;51.978;8.472;2023-03-01T01:16:25;9.15;;;5.05;;
4857;SDS011;58975;51.978;8.472;2023-03-01T01:21:25;8.07;;;5.13;;
4857;SDS011;58975;51.978;8.472;2023-03-01T01:26:23;9.35;;;4.97;;
4857;SDS011;58975;51.978;8.472;2023-03-01T01:31:21;8.27;;;4.60;;
4857;SDS011;58975;51.978;8.472;2023-03-01T01:36:20;9.02;;;4.85;;
4857;SDS011;58975;51.978;8.472;2023-03-01T01:41:16;6.97;;;4.50;;
4857;SDS011;58975;51.978;8.472;2023-03-01T01:46:16;7.00;;;4.70;;
4857;SDS011;58975;51.978;8.472;2023-03-01T01:51:28;8.02;;;4.38;;
4857;SDS011;58975;51.978;8.472;2023-03-01T01:56:34;11.70;;;5.72;;
4857;SDS011;58975;51.978;8.472;2023-03-01T02:06:31;11.68;;;5.68;;
4857;SDS011;58975;51.978;8.472;2023-03-01T02:11:32;9.15;;;5.47;;
4857;SDS011;58975;51.978;8.472;2023-03-01T02:16:28;9.15;;;5.47;;
4857;SDS011;58975;51.978;8.472;2023-03-01T02:26:52;12.75;;;5.88;;
4857;SDS011;58975;51.978;8.472;2023-03-01T02:31:51;11.50;;;5.22;;
4857;SDS011;58975;51.978;8.472;2023-03-01T02:37:12;14.30;;;5.75;;
4857;SDS011;58975;51.978;8.472;2023-03-01T02:42:10;12.07;;;6.30;;
4857;SDS011;58975;51.978;8.472;2023-03-01T02:47:09;10.63;;;5.70;;
4857;SDS011;58975;51.978;8.472;2023-03-01T02:52:21;11.93;;;5.97;;
4857;SDS011;58975;51.978;8.472;2023-03-01T02:57:25;13.50;;;5.35;;
4857;SDS011;58975;51.978;8.472;2023-03-01T03:02:25;14.02;;;6.00;;
4857;SDS011;58975;51.978;8.472;2023-03-01T03:07:35;10.93;;;5.43;;
4857;SDS011;58975;51.978;8.472;2023-03-01T03:12:33;11.95;;;5.88;;
4857;SDS011;58975;51.978;8.472;2023-03-01T03:17:30;14.05;;;5.95;;
4857;SDS011;58975;51.978;8.472;2023-03-01T03:22:26;12.93;;;5.78;;
4857;SDS011;58975;51.978;8.472;2023-03-01T03:27:24;10.77;;;6.13;;
4857;SDS011;58975;51.978;8.472;2023-03-01T03:32:21;12.23;;;5.47;;
4857;SDS011;58975;51.978;8.472;2023-03-01T03:37:17;10.30;;;5.65;;
4857;SDS011;58975;51.978;8.472;2023-03-01T03:42:32;12.00;;;6.05;;
4857;SDS011;58975;51.978;8.472;2023-03-01T03:47:29;10.82;;;5.85;;
4857;SDS011;58975;51.978;8.472;2023-03-01T03:52:25;9.23;;;5.50;;
4857;SDS011;58975;51.978;8.472;2023-03-01T03:57:22;9.05;;;5.43;;
4857;SDS011;58975;51.978;8.472;2023-03-01T04:02:18;9.85;;;5.38;;
4857;SDS011;58975;51.978;8.472;2023-03-01T04:07:18;15.50;;;6.13;;
4857;SDS011;58975;51.978;8.472;2023-03-01T04:12:14;12.23;;;6.35;;
4857;SDS011;58975;51.978;8.472;2023-03-01T04:17:16;11.52;;;6.10;;
4857;SDS011;58975;51.978;8.472;2023-03-01T04:22:13;11.90;;;6.18;;
4857;SDS011;58975;51.978;8.472;2023-03-01T04:27:14;10.95;;;5.93;;
4857;SDS011;58975;51.978;8.472;2023-03-01T04:32:10;8.50;;;5.47;;
4857;SDS011;58975;51.978;8.472;2023-03-01T04:37:07;11.13;;;6.32;;
4857;SDS011;58975;51.978;8.472;2023-03-01T04:42:05;10.88;;;6.28;;
4857;SDS011;58975;51.978;8.472;2023-03-01T04:47:01;9.75;;;5.72;;
4857;SDS011;58975;51.978;8.472;2023-03-01T04:51:58;14.77;;;6.13;;
4857;SDS011;58975;51.978;8.472;2023-03-01T04:56:58;10.15;;;5.75;;
4857;SDS011;58975;51.978;8.472;2023-03-01T05:01:55;13.20;;;6.22;;
4857;SDS011;58975;51.978;8.472;2023-03-01T05:06:52;13.25;;;7.03;;
4857;SDS011;58975;51.978;8.472;2023-03-01T05:11:49;11.80;;;6.38;;
4857;SDS011;58975;51.978;8.472;2023-03-01T05:16:47;17.00;;;7.38;;
4857;SDS011;58975;51.978;8.472;2023-03-01T05:21:44;14.10;;;7.45;;
4857;SDS011;58975;51.978;8.472;2023-03-01T05:27:00;18.83;;;8.20;;
4857;SDS011;58975;51.978;8.472;2023-03-01T05:31:58;20.40;;;8.57;;
4857;SDS011;58975;51.978;8.472;2023-03-01T05:36:57;26.58;;;9.10;;
4857;SDS011;58975;51.978;8.472;2023-03-01T05:41:54;18.65;;;8.77;;
4857;SDS011;58975;51.978;8.472;2023-03-01T05:46:52;16.27;;;7.45;;
4857;SDS011;58975;51.978;8.472;2023-03-01T05:51:50;26.60;;;9.18;;
4857;SDS011;58975;51.978;8.472;2023-03-01T05:56:47;21.42;;;9.70;;
4857;SDS011;58975;51.978;8.472;2023-03-01T06:01:44;14.98;;;7.68;;
4857;SDS011;58975;51.978;8.472;2023-03-01T06:06:40;15.18;;;9.73;;
4857;SDS011;58975;51.978;8.472;2023-03-01T06:11:36;15.68;;;9.52;;
4857;SDS011;58975;51.978;8.472;2023-03-01T06:16:33;19.45;;;10.80;;
4857;SDS011;58975;51.978;8.472;2023-03-01T06:21:29;21.02;;;10.23;;
4857;SDS011;58975;51.978;8.472;2023-03-01T06:26:26;19.73;;;9.32;;
4857;SDS011;58975;51.978;8.472;2023-03-01T06:31:22;15.05;;;9.10;;
4857;SDS011;58975;51.978;8.472;2023-03-01T06:36:19;15.57;;;8.60;;
4857;SDS011;58975;51.978;8.472;2023-03-01T06:41:17;16.95;;;8.82;;
4857;SDS011;58975;51.978;8.472;2023-03-01T06:46:13;22.50;;;9.82;;
4857;SDS011;58975;51.978;8.472;2023-03-01T06:51:09;35.13;;;10.30;;
4857;SDS011;58975;51.978;8.472;2023-03-01T06:56:06;21.67;;;10.40;;
4857;SDS011;58975;51.978;8.472;2023-03-01T07:01:06;23.95;;;11.27;;
4857;SDS011;58975;51.978;8.472;2023-03-01T07:06:03;18.13;;;9.65;;
4857;SDS011;58975;51.978;8.472;2023-03-01T07:10:59;21.90;;;9.57;;
4857;SDS011;58975;51.978;8.472;2023-03-01T07:15:58;17.43;;;8.53;;
4857;SDS011;58975;51.978;8.472;2023-03-01T07:20:54;14.88;;;9.10;;
4857;SDS011;58975;51.978;8.472;2023-03-01T07:25:54;12.73;;;8.13;;
4857;SDS011;58975;51.978;8.472;2023-03-01T07:30:50;15.73;;;8.32;;
4857;SDS011;58975;51.978;8.472;2023-03-01T07:35:47;15.55;;;8.43;;
4857;SDS011;58975;51.978;8.472;2023-03-01T07:40:43;19.77;;;9.10;;
4857;SDS011;58975;51.978;8.472;2023-03-01T07:45:39;16.65;;;8.82;;
4857;SDS011;58975;51.978;8.472;2023-03-01T07:50:36;15.95;;;8.73;;
4857;SDS011;58975;51.978;8.472;2023-03-01T07:55:32;21.20;;;8.50;;
4857;SDS011;58975;51.978;8.472;2023-03-01T08:00:29;15.05;;;7.72;;
4857;SDS011;58975;51.978;8.472;2023-03-01T08:05:25;17.63;;;8.63;;
4857;SDS011;58975;51.978;8.472;2023-03-01T08:10:21;16.95;;;8.43;;
4857;SDS011;58975;51.978;8.472;2023-03-01T08:15:18;14.00;;;7.50;;
4857;SDS011;58975;51.978;8.472;2023-03-01T08:20:15;10.20;;;6.95;;
4857;SDS011;58975;51.978;8.472;2023-03-01T08:25:15;13.40;;;7.35;;
4857;SDS011;58975;51.978;8.472;2023-03-01T08:30:11;14.07;;;7.47;;
4857;SDS011;58975;51.978;8.472;2023-03-01T08:35:08;15.07;;;7.43;;
4857;SDS011;58975;51.978;8.472;2023-03-01T08:40:05;11.10;;;7.00;;
4857;SDS011;58975;51.978;8.472;2023-03-01T08:45:03;11.65;;;5.43;;
4857;SDS011;58975;51.978;8.472;2023-03-01T08:50:00;13.57;;;7.78;;
4857;SDS011;58975;51.978;8.472;2023-03-01T08:54:56;13.43;;;6.70;;
4857;SDS011;58975;51.978;8.472;2023-03-01T08:59:52;12.25;;;7.22;;
4857;SDS011;58975;51.978;8.472;2023-03-01T09:04:52;13.45;;;7.07;;
4857;SDS011;58975;51.978;8.472;2023-03-01T09:09:48;10.48;;;6.70;;
4857;SDS011;58975;51.978;8.472;2023-03-01T09:14:44;12.70;;;6.93;;
4857;SDS011;58975;51.978;8.472;2023-03-01T09:19:41;12.30;;;6.60;;
4857;SDS011;58975;51.978;8.472;2023-03-01T09:24:37;20.38;;;7.97;;
4857;SDS011;58975;51.978;8.472;2023-03-01T09:29:35;18.80;;;7.65;;
4857;SDS011;58975;51.978;8.472;2023-03-01T09:39:49;15.32;;;6.63;;
4857;SDS011;58975;51.978;8.472;2023-03-01T09:44:56;15.82;;;7.03;;
4857;SDS011;58975;51.978;8.472;2023-03-01T09:50:16;12.40;;;7.05;;
4857;SDS011;58975;51.978;8.472;2023-03-01T09:55:16;13.70;;;6.00;;
4857;SDS011;58975;51.978;8.472;2023-03-01T10:00:44;14.23;;;7.18;;
4857;SDS011;58975;51.978;8.472;2023-03-01T10:05:59;15.88;;;5.47;;
4857;SDS011;58975;51.978;8.472;2023-03-01T10:11:00;9.20;;;5.28;;
4857;SDS011;58975;51.978;8.472;2023-03-01T10:15:57;9.27;;;5.13;;
4857;SDS011;58975;51.978;8.472;2023-03-01T10:21:19;11.27;;;5.25;;
4857;SDS011;58975;51.978;8.472;2023-03-01T10:31:13;9.98;;;4.15;;
4857;SDS011;58975;51.978;8.472;2023-03-01T10:36:14;8.80;;;4.63;;
4857;SDS011;58975;51.978;8.472;2023-03-01T10:41:11;9.18;;;4.88;;
4857;SDS011;58975;51.978;8.472;2023-03-01T10:51:28;9.18;;;4.82;;
4857;SDS011;58975;51.978;8.472;2023-03-01T10:56:25;13.80;;;5.13;;
4857;SDS011;58975;51.978;8.472;2023-03-01T11:06:29;14.18;;;4.68;;
4857;SDS011;58975;51.978;8.472;2023-03-01T11:11:29;7.30;;;4.40;;
4857;SDS011;58975;51.978;8.472;2023-03-01T11:16:29;8.63;;;4.22;;
4857;SDS011;58975;51.978;8.472;2023-03-01T11:21:28;9.30;;;4.57;;
4857;SDS011;58975;51.978;8.472;2023-03-01T11:26:29;8.38;;;4.57;;
4857;SDS011;58975;51.978;8.472;2023-03-01T11:31:30;8.70;;;4.93;;
4857;SDS011;58975;51.978;8.472;2023-03-01T11:41:30;9.65;;;3.65;;
4857;SDS011;58975;51.978;8.472;2023-03-01T12:02:42;10.48;;;3.63;;
4857;SDS011;58975;51.978;8.472;2023-03-01T12:13:27;5.18;;;3.20;;
4857;SDS011;58975;51.978;8.472;2023-03-01T12:19:02;6.13;;;3.00;;
4857;SDS011;58975;51.978;8.472;2023-03-01T12:29:40;7.38;;;3.75;;
4857;SDS011;58975;51.978;8.472;2023-03-01T12:35:05;9.85;;;3.28;;
4857;SDS011;58975;51.978;8.472;2023-03-01T12:45:32;6.97;;;3.13;;
4857;SDS011;58975;51.978;8.472;2023-03-01T12:50:52;6.78;;;3.72;;
4857;SDS011;58975;51.978;8.472;2023-03-01T12:55:50;6.75;;;3.85;;
4857;SDS011;58975;51.978;8.472;2023-03-01T13:11:51;7.57;;;4.05;;
4857;SDS011;58975;51.978;8.472;2023-03-01T13:16:48;7.82;;;3.72;;
4857;SDS011;58975;51.978;8.472;2023-03-01T13:21:46;8.27;;;3.83;;
4857;SDS011;58975;51.978;8.472;2023-03-01T13:32:01;7.57;;;3.83;;
4857;SDS011;58975;51.978;8.472;2023-03-01T13:37:10;5.88;;;3.47;;
4857;SDS011;58975;51.978;8.472;2023-03-01T13:42:28;8.13;;;3.38;;
4857;SDS011;58975;51.978;8.472;2023-03-01T13:47:37;5.93;;;3.13;;
4857;SDS011;58975;51.978;8.472;2023-03-01T13:52:36;14.73;;;3.95;;
4857;SDS011;58975;51.978;8.472;2023-03-01T13:57:38;4.47;;;2.78;;
4857;SDS011;58975;51.978;8.472;2023-03-01T14:02:35;5.55;;;3.13;;
4857;SDS011;58975;51.978;8.472;2023-03-01T14:07:32;5.65;;;2.90;;
4857;SDS011;58975;51.978;8.472;2023-03-01T14:17:44;5.93;;;3.20;;
4857;SDS011;58975;51.978;8.472;2023-03-01T14:22:48;6.55;;;3.35;;
4857;SDS011;58975;51.978;8.472;2023-03-01T14:27:54;6.82;;;2.97;;
4857;SDS011;58975;51.978;8.472;2023-03-01T14:32:54;4.57;;;2.80;;
4857;SDS011;58975;51.978;8.472;2023-03-01T14:37:53;5.45;;;3.33;;
4857;SDS011;58975;51.978;8.472;2023-03-01T14:42:49;4.30;;;2.40;;
4857;SDS011;58975;51.978;8.472;2023-03-01T14:47:46;4.68;;;2.83;;
4857;SDS011;58975;51.978;8.472;2023-03-01T14:52:45;5.63;;;3.00;;
4857;SDS011;58975;51.978;8.472;2023-03-01T14:57:44;8.02;;;2.95;;
4857;SDS011;58975;51.978;8.472;2023-03-01T15:02:43;8.20;;;3.45;;
4857;SDS011;58975;51.978;8.472;2023-03-01T15:07:44;6.30;;;3.05;;
4857;SDS011;58975;51.978;8.472;2023-03-01T15:12:44;4.95;;;2.60;;
4857;SDS011;58975;51.978;8.472;2023-03-01T15:17:41;6.45;;;3.47;;
4857;SDS011;58975;51.978;8.472;2023-03-01T15:22:37;3.50;;;2.35;;
4857;SDS011;58975;51.978;8.472;2023-03-01T15:27:33;6.35;;;3.25;;
4857;SDS011;58975;51.978;8.472;2023-03-01T15:32:31;6.47;;;3.35;;
4857;SDS011;58975;51.978;8.472;2023-03-01T15:37:46;6.28;;;2.67;;
4857;SDS011;58975;51.978;8.472;2023-03-01T15:42:44;4.57;;;2.30;;
4857;SDS011;58975;51.978;8.472;2023-03-01T15:47:41;3.88;;;2.72;;
4857;SDS011;58975;51.978;8.472;2023-03-01T15:52:44;4.53;;;2.58;;
4857;SDS011;58975;51.978;8.472;2023-03-01T15:57:40;2.47;;;1.83;;
4857;SDS011;58975;51.978;8.472;2023-03-01T16:02:37;2.70;;;1.85;;
4857;SDS011;58975;51.978;8.472;2023-03-01T16:07:34;6.75;;;2.30;;
4857;SDS011;58975;51.978;8.472;2023-03-01T16:12:35;4.13;;;2.67;;
4857;SDS011;58975;51.978;8.472;2023-03-01T16:17:31;4.55;;;2.67;;
4857;SDS011;58975;51.978;8.472;2023-03-01T16:22:28;2.80;;;2.28;;
4857;SDS011;58975;51.978;8.472;2023-03-01T16:27:24;5.13;;;2.50;;
4857;SDS011;58975;51.978;8.472;2023-03-01T16:32:20;7.22;;;2.53;;
4857;SDS011;58975;51.978;8.472;2023-03-01T16:37:17;4.25;;;2.17;;
4857;SDS011;58975;51.978;8.472;2023-03-01T16:42:16;4.25;;;2.50;;
4857;SDS011;58975;51.978;8.472;2023-03-01T16:47:13;4.82;;;2.70;;
4857;SDS011;58975;51.978;8.472;2023-03-01T16:52:10;4.93;;;2.17;;
4857;SDS011;58975;51.978;8.472;2023-03-01T16:57:06;5.10;;;2.75;;
4857;SDS011;58975;51.978;8.472;2023-03-01T17:02:03;4.95;;;2.20;;
4857;SDS011;58975;51.978;8.472;2023-03-01T17:07:02;7.43;;;2.83;;
4857;SDS011;58975;51.978;8.472;2023-03-01T17:11:58;5.03;;;2.92;;
4857;SDS011;58975;51.978;8.472;2023-03-01T17:16:55;7.45;;;3.10;;
4857;SDS011;58975;51.978;8.472;2023-03-01T17:21:51;6.20;;;3.10;;
4857;SDS011;58975;51.978;8.472;2023-03-01T17:26:48;6.20;;;3.03;;
4857;SDS011;58975;51.978;8.472;2023-03-01T17:31:44;6.63;;;3.15;;
4857;SDS011;58975;51.978;8.472;2023-03-01T17:36:41;4.25;;;2.75;;
4857;SDS011;58975;51.978;8.472;2023-03-01T17:41:39;4.67;;;2.57;;
4857;SDS011;58975;51.978;8.472;2023-03-01T17:46:35;4.35;;;2.70;;
4857;SDS011;58975;51.978;8.472;2023-03-01T17:51:32;8.48;;;3.20;;
4857;SDS011;58975;51.978;8.472;2023-03-01T17:56:29;6.90;;;2.53;;
4857;SDS011;58975;51.978;8.472;2023-03-01T18:01:27;7.30;;;2.63;;
4857;SDS011;58975;51.978;8.472;2023-03-01T18:06:24;6.57;;;2.95;;
4857;SDS011;58975;51.978;8.472;2023-03-01T18:11:23;6.53;;;2.53;;
4857;SDS011;58975;51.978;8.472;2023-03-01T18:16:21;6.47;;;2.63;;
4857;SDS011;58975;51.978;8.472;2023-03-01T18:21:17;7.30;;;3.35;;
4857;SDS011;58975;51.978;8.472;2023-03-01T18:26:16;5.60;;;3.00;;
4857;SDS011;58975;51.978;8.472;2023-03-01T18:31:14;8.43;;;2.33;;
4857;SDS011;58975;51.978;8.472;2023-03-01T18:36:21;5.85;;;3.22;;
4857;SDS011;58975;51.978;8.472;2023-03-01T18:41:22;3.85;;;2.30;;
4857;SDS011;58975;51.978;8.472;2023-03-01T18:46:20;4.28;;;2.40;;
4857;SDS011;58975;51.978;8.472;2023-03-01T18:51:21;4.25;;;2.60;;
4857;SDS011;58975;51.978;8.472;2023-03-01T18:56:20;5.18;;;2.60;;
4857;SDS011;58975;51.978;8.472;2023-03-01T19:01:18;8.00;;;3.85;;
4857;SDS011;58975;51.978;8.472;2023-03-01T19:06:17;10.48;;;3.63;;
4857;SDS011;58975;51.978;8.472;2023-03-01T19:11:13;6.60;;;3.60;;
4857;SDS011;58975;51.978;8.472;2023-03-01T19:16:18;7.15;;;4.05;;
4857;SDS011;58975;51.978;8.472;2023-03-01T19:21:17;6.93;;;4.07;;
4857;SDS011;58975;51.978;8.472;2023-03-01T19:26:16;8.80;;;3.47;;
4857;SDS011;58975;51.978;8.472;2023-03-01T19:31:15;7.57;;;3.50;;
4857;SDS011;58975;51.978;8.472;2023-03-01T19:36:14;7.93;;;3.83;;
4857;SDS011;58975;51.978;8.472;2023-03-01T19:41:12;9.10;;;3.67;;
4857;SDS011;58975;51.978;8.472;2023-03-01T19:46:10;7.75;;;3.95;;
4857;SDS011;58975;51.978;8.472;2023-03-01T19:51:07;9.93;;;4.15;;
4857;SDS011;58975;51.978;8.472;2023-03-01T19:56:04;9.05;;;3.40;;
4857;SDS011;58975;51.978;8.472;2023-03-01T20:01:00;10.10;;;3.92;;
4857;SDS011;58975;51.978;8.472;2023-03-01T20:05:57;9.10;;;4.25;;
4857;SDS011;58975;51.978;8.472;2023-03-01T20:10:59;9.65;;;4.68;;
4857;SDS011;58975;51.978;8.472;2023-03-01T20:15:57;7.30;;;4.05;;
4857;SDS011;58975;51.978;8.472;2023-03-01T20:20:53;7.10;;;3.75;;
4857;SDS011;58975;51.978;8.472;2023-03-01T20:25:50;7.75;;;3.75;;
4857;SDS011;58975;51.978;8.472;2023-03-01T20:30:47;9.73;;;4.00;;
4857;SDS011;58975;51.978;8.472;2023-03-01T20:35:43;8.85;;;4.05;;
4857;SDS011;58975;51.978;8.472;2023-03-01T20:40:40;11.93;;;4.88;;
4857;SDS011;58975;51.978;8.472;2023-03-01T20:45:36;7.07;;;3.90;;
4857;SDS011;58975;51.978;8.472;2023-03-01T20:50:33;8.52;;;4.00;;
4857;SDS011;58975;51.978;8.472;2023-03-01T20:55:29;6.30;;;3.47;;
4857;SDS011;58975;51.978;8.472;2023-03-01T21:00:26;9.95;;;4.25;;
4857;SDS011;58975;51.978;8.472;2023-03-01T21:05:22;7.78;;;3.60;;
4857;SDS011;58975;51.978;8.472;2023-03-01T21:10:19;5.57;;;3.50;;
4857;SDS011;58975;51.978;8.472;2023-03-01T21:15:15;6.57;;;3.53;;
4857;SDS011;58975;51.978;8.472;2023-03-01T21:20:24;11.85;;;4.13;;
4857;SDS011;58975;51.978;8.472;2023-03-01T21:25:20;9.18;;;3.78;;
4857;SDS011;58975;51.978;8.472;2023-03-01T21:30:17;9.93;;;4.00;;
4857;SDS011;58975;51.978;8.472;2023-03-01T21:35:13;9.00;;;3.95;;
4857;SDS011;58975;51.978;8.472;2023-03-01T21:40:10;12.38;;;4.95;;
4857;SDS011;58975;51.978;8.472;2023-03-01T21:45:07;8.27;;;3.92;;
4857;SDS011;58975;51.978;8.472;2023-03-01T21:50:04;9.23;;;4.40;;
4857;SDS011;58975;51.978;8.472;2023-03-01T21:55:03;9.73;;;5.05;;
4857;SDS011;58975;51.978;8.472;2023-03-01T22:00:00;10.27;;;4.35;;
4857;SDS011;58975;51.978;8.472;2023-03-01T22:04:56;9.40;;;4.68;;
4857;SDS011;58975;51.978;8.472;2023-03-01T22:09:53;10.20;;;5.10;;
4857;SDS011;58975;51.978;8.472;2023-03-01T22:14:49;6.30;;;3.45;;
4857;SDS011;58975;51.978;8.472;2023-03-01T22:19:46;11.32;;;5.65;;
4857;SDS011;58975;51.978;8.472;2023-03-01T22:24:42;9.38;;;4.95;;
4857;SDS011;58975;51.978;8.472;2023-03-01T22:29:38;10.13;;;4.93;;
4857;SDS011;58975;51.978;8.472;2023-03-01T22:34:35;10.85;;;6.25;;
4857;SDS011;58975;51.978;8.472;2023-03-01T22:39:32;13.38;;;5.25;;
4857;SDS011;58975;51.978;8.472;2023-03-01T22:44:28;9.90;;;5.38;;
4857;SDS011;58975;51.978;8.472;2023-03-01T22:49:24;8.13;;;4.30;;
4857;SDS011;58975;51.978;8.472;2023-03-01T22:54:21;8.05;;;4.40;;
4857;SDS011;58975;51.978;8.472;2023-03-01T22:59:18;6.72;;;3.80;;
4857;SDS011;58975;51.978;8.472;2023-03-01T23:04:18;9.18;;;4.55;;
4857;SDS011;58975;51.978;8.472;2023-03-01T23:09:16;8.13;;;4.05;;
4857;SDS011;58975;51.978;8.472;2023-03-01T23:14:13;6.57;;;2.70;;
4857;SDS011;58975;51.978;8.472;2023-03-01T23:19:11;6.78;;;3.85;;
4857;SDS011;58975;51.978;8.472;2023-03-01T23:24:07;7.20;;;3.90;;
4857;SDS011;58975;51.978;8.472;2023-03-01T23:29:04;8.20;;;4.35;;
4857;SDS011;58975;51.978;8.472;2023-03-01T23:34:01;8.23;;;4.25;;
4857;SDS011;58975;51.978;8.472;2023-03-01T23:38:59;9.55;;;4.07;;
4857;SDS011;58975;51.978;8.472;2023-03-01T23:43:59;11.20;;;4.80;;
4857;SDS011;58975;51.978;8.472;2023-03-01T23:48:57;8.83;;;4.47;;
4857;SDS011;58975;51.978;8.472;2023-03-01T23:53:58;10.43;;;4.28;;
4857;SDS011;58975;51.978;8.472;2023-03-01T23:59:01;11.32;;;5.75;;
